Time;durP1;ratioP1;P1;durP2;ratioP2;P2;SDS_P1;SDS_P2;PMS_P1;PMS_P2;Temp;Humidity;BMP_temperature;BMP_pressure;BME280_temperature;BME280_humidity;BME280_pressure;Samples;Min_cycle;Max_cycle;Signal;HPM_P1;HPM_P2
2021/05/06 00:02:25;;;;;;;6.34;1.83;;;;;;;15.09;47.99;98217.06;350589;114;1962998;-73
2021/05/06 00:04:05;;;;;;;7.11;1.68;;;;;;;15.08;47.97;98218.98;353857;113;1961954;-74
2021/05/06 00:14:27;;;;;;;4.05;1.75;;;;;;;14.95;48.14;98214.03;345276;115;1962930;-72
2021/05/06 00:32:05;;;;;;;5.14;1.71;;;;;;;14.65;48.53;98193.06;351716;113;1962027;-72
2021/05/06 00:33:08;;;;;;;5.47;1.83;;;;;;;14.64;48.49;98191.45;352971;113;1964042;-74
2021/05/06 00:34:14;;;;;;;6.22;1.70;;;;;;;14.62;48.50;98188.17;349233;114;1962005;-70
2021/05/06 00:35:19;;;;;;;5.77;2.45;;;;;;;14.58;48.61;98193.34;348492;116;1961921;-72
2021/05/06 00:36:26;;;;;;;7.26;2.17;;;;;;;14.60;48.48;98184.89;349449;114;1961980;-73
2021/05/06 00:37:40;;;;;;;3.59;1.68;;;;;;;14.60;48.40;98187.61;304896;114;2808754;-73
2021/05/06 00:38:49;;;;;;;3.48;1.54;;;;;;;14.60;48.37;98190.33;348188;115;1961923;-72
2021/05/06 00:40:00;;;;;;;8.57;2.06;;;;;;;14.59;48.34;98180.56;303726;114;2079972;-72
2021/05/06 00:42:30;;;;;;;8.99;1.92;;;;;;;14.55;48.28;98182.98;348835;116;1961939;-73
2021/05/06 00:46:20;;;;;;;4.98;1.49;;;;;;;14.58;48.08;98171.59;343759;117;1962039;-73
2021/05/06 00:54:27;;;;;;;4.47;1.78;;;;;;;14.55;47.64;98166.67;341257;115;2962022;-73
2021/05/06 00:55:41;;;;;;;5.78;2.08;;;;;;;14.53;47.66;98174.30;347998;115;1961925;-72
2021/05/06 01:01:44;;;;;;;8.02;1.71;;;;;;;14.35;47.69;98164.70;347845;114;1962092;-73
2021/05/06 01:04:06;;;;;;;5.81;1.63;;;;;;;14.36;47.59;98157.37;356064;109;1960629;-72
2021/05/06 01:06:13;;;;;;;4.47;1.80;;;;;;;14.35;47.54;98156.56;340466;109;1964926;-71
2021/05/06 01:08:45;;;;;;;6.74;1.93;;;;;;;14.37;47.36;98158.98;350574;107;1960941;-72
2021/05/06 01:10:13;;;;;;;7.04;1.79;;;;;;;14.40;47.28;98162.00;368866;107;1961936;-73
2021/05/06 01:12:17;;;;;;;7.75;2.72;;;;;;;14.38;47.06;98149.77;371118;108;1961924;-73
2021/05/06 01:13:26;;;;;;;7.33;2.99;;;;;;;14.33;47.06;98158.72;379010;106;1962022;-73
2021/05/06 01:14:31;;;;;;;7.12;2.99;;;;;;;14.39;46.94;98154.92;376651;106;1962959;-72
2021/05/06 01:15:46;;;;;;;6.46;2.34;;;;;;;14.40;46.86;98155.77;304857;106;2287961;-73
2021/05/06 01:16:52;;;;;;;4.59;2.12;;;;;;;14.39;46.84;98154.92;372744;108;1961889;-74
2021/05/06 01:17:58;;;;;;;7.63;2.68;;;;;;;14.38;46.83;98161.45;374729;106;1961911;-73
2021/05/06 01:19:05;;;;;;;4.09;1.89;;;;;;;14.39;46.86;98159.55;372984;106;1961986;-73
2021/05/06 01:20:13;;;;;;;6.16;1.92;;;;;;;14.40;46.79;98158.48;333105;106;2702020;-72
2021/05/06 01:21:18;;;;;;;6.22;2.61;;;;;;;14.39;46.84;98154.92;375906;108;1961888;-73
2021/05/06 01:22:24;;;;;;;5.98;2.89;;;;;;;14.39;46.79;98151.39;376025;108;1961990;-73
2021/05/06 01:23:33;;;;;;;6.58;2.32;;;;;;;14.40;46.75;98158.48;373474;106;1961946;-72
2021/05/06 01:24:39;;;;;;;7.51;2.40;;;;;;;14.42;46.68;98162.56;371735;107;1961946;-72
2021/05/06 01:25:53;;;;;;;7.72;2.72;;;;;;;14.42;46.67;98150.85;369492;108;1961927;-73
2021/05/06 01:27:01;;;;;;;9.23;2.52;;;;;;;14.41;46.65;98154.67;351394;108;1962037;-73
2021/05/06 01:28:08;;;;;;;10.68;3.09;;;;;;;14.42;46.68;98167.16;368345;107;1963779;-72
2021/05/06 01:29:18;;;;;;;8.42;2.48;;;;;;;14.39;46.67;98157.64;369984;107;1961960;-72
2021/05/06 01:30:28;;;;;;;8.52;2.93;;;;;;;14.40;46.58;98155.77;366986;109;1961968;-72
2021/05/06 01:31:32;;;;;;;7.40;2.27;;;;;;;14.40;46.54;98159.29;340468;107;2377911;-73
2021/05/06 01:33:53;;;;;;;9.79;3.17;;;;;;;14.43;46.29;98150.59;370694;107;1963918;-73
2021/05/06 01:35:01;;;;;;;4.84;1.91;;;;;;;14.41;46.30;98150.05;361207;110;1961015;-71
2021/05/06 01:36:16;;;;;;;7.95;2.44;;;;;;;14.40;46.24;98158.48;368758;108;1962015;-72
2021/05/06 01:37:23;;;;;;;8.86;2.51;;;;;;;14.40;46.24;98158.48;365126;110;1962069;-72
2021/05/06 01:42:22;;;;;;;5.13;1.78;;;;;;;14.39;46.26;98151.39;366506;109;1961926;-72
2021/05/06 01:44:09;;;;;;;5.17;1.77;;;;;;;14.38;46.25;98144.34;366344;109;1961931;-73
2021/05/06 01:46:07;;;;;;;9.04;2.97;;;;;;;14.35;46.22;98134.83;359177;108;2871961;-72
2021/05/06 01:48:51;;;;;;;3.04;1.42;;;;;;;14.29;46.26;98133.19;363452;109;1961911;-73
2021/05/06 01:57:43;;;;;;;7.83;2.69;;;;;;;14.18;46.22;98140.46;334297;107;2011018;-73
2021/05/06 01:58:51;;;;;;;6.33;2.38;;;;;;;14.18;46.15;98143.17;373940;106;1962015;-72
2021/05/06 01:59:54;;;;;;;5.23;1.52;;;;;;;14.18;46.19;98136.94;374090;107;1962073;-72
2021/05/06 02:01:05;;;;;;;6.40;2.19;;;;;;;14.16;46.24;98137.22;374461;108;1962953;-72
2021/05/06 02:02:10;;;;;;;10.44;2.75;;;;;;;14.17;46.26;98132.59;375919;107;1962002;-73
2021/05/06 02:03:16;;;;;;;7.34;2.39;;;;;;;14.16;46.22;98134.50;344652;106;1963045;-72
2021/05/06 02:04:21;;;;;;;7.15;2.34;;;;;;;14.15;46.25;98126.61;359391;109;1963934;-73
2021/05/06 02:05:26;;;;;;;5.42;1.93;;;;;;;14.13;46.35;98131.48;359495;106;1961991;-72
2021/05/06 02:06:35;;;;;;;6.96;2.02;;;;;;;14.12;46.34;98130.67;373377;106;1961915;-73
2021/05/06 02:07:43;;;;;;;6.55;2.59;;;;;;;14.12;46.30;98127.96;375114;106;1960999;-72
2021/05/06 02:08:49;;;;;;;7.44;1.86;;;;;;;14.10;46.35;98123.88;376518;106;1965034;-72
2021/05/06 02:09:55;;;;;;;6.79;1.68;;;;;;;14.06;46.46;98124.42;376262;106;1962027;-72
2021/05/06 02:11:02;;;;;;;8.16;2.37;;;;;;;14.06;46.50;98120.89;313627;108;2189984;-73
2021/05/06 02:12:26;;;;;;;4.53;1.88;;;;;;;14.03;46.60;98124.95;330443;106;2889014;-72
2021/05/06 02:13:33;;;;;;;4.52;1.60;;;;;;;14.01;46.59;98129.02;370207;108;1964037;-73
2021/05/06 02:14:39;;;;;;;5.23;2.32;;;;;;;13.98;46.65;98119.50;363385;110;1961990;-72
2021/05/06 02:15:50;;;;;;;4.67;1.78;;;;;;;13.97;46.71;98106.19;369881;109;1961914;-72
2021/05/06 02:16:52;;;;;;;6.82;2.18;;;;;;;13.92;46.84;98114.30;347078;112;1962040;-72
2021/05/06 02:17:58;;;;;;;6.68;2.42;;;;;;;13.92;46.88;98119.73;373981;107;1962012;-72
2021/05/06 02:19:05;;;;;;;6.44;1.91;;;;;;;13.88;46.87;98121.36;368600;107;1961911;-72
2021/05/06 02:20:15;;;;;;;5.37;1.94;;;;;;;13.82;47.14;98109.67;351608;109;1961951;-72
2021/05/06 02:21:21;;;;;;;5.18;1.59;;;;;;;13.82;47.11;98115.10;368692;109;1962986;-72
2021/05/06 02:22:32;;;;;;;5.86;1.91;;;;;;;13.79;47.14;98116.45;371171;107;1961978;-71
2021/05/06 02:23:38;;;;;;;6.08;2.17;;;;;;;13.75;47.32;98109.09;335520;107;1961973;-71
2021/05/06 02:24:44;;;;;;;5.91;1.86;;;;;;;13.72;47.43;98117.77;369965;109;1963732;-73
2021/05/06 02:25:49;;;;;;;4.57;1.73;;;;;;;13.70;47.61;98115.30;375189;108;1961950;-72
2021/05/06 02:26:55;;;;;;;4.39;1.66;;;;;;;13.66;47.51;98122.36;376500;108;1961014;-71
2021/05/06 02:28:01;;;;;;;4.81;1.41;;;;;;;13.61;47.77;98120.42;375653;107;1962028;-73
2021/05/06 02:29:07;;;;;;;8.80;2.41;;;;;;;13.62;47.73;98121.23;376926;108;1961931;-72
2021/05/06 02:30:15;;;;;;;7.19;2.23;;;;;;;13.57;47.78;98121.20;316738;105;2137916;-73
2021/05/06 02:31:22;;;;;;;7.02;1.86;;;;;;;13.55;47.95;98115.25;376611;106;1962001;-73
2021/05/06 02:32:28;;;;;;;6.33;2.29;;;;;;;13.50;48.03;98109.80;351115;106;2355947;-73
2021/05/06 02:33:34;;;;;;;7.28;2.21;;;;;;;13.46;48.20;98124.95;366457;106;1962906;-72
2021/05/06 02:34:40;;;;;;;6.19;2.00;;;;;;;13.45;48.18;98123.33;375904;107;1961997;-72
2021/05/06 02:35:46;;;;;;;8.87;2.54;;;;;;;13.41;48.26;98134.67;374100;108;1964011;-72
2021/05/06 02:36:51;;;;;;;6.19;2.53;;;;;;;13.40;48.28;98127.63;373815;108;1961980;-72
2021/05/06 02:37:56;;;;;;;8.24;2.36;;;;;;;13.38;48.42;98123.55;375078;106;1964955;-72
2021/05/06 02:39:03;;;;;;;6.33;1.92;;;;;;;13.33;48.74;98142.49;377653;106;1962970;-73
2021/05/06 02:40:10;;;;;;;6.98;2.02;;;;;;;13.32;48.73;98128.13;343226;106;2553020;-72
2021/05/06 02:41:16;;;;;;;8.38;2.35;;;;;;;13.33;48.68;98124.32;374817;106;1962002;-72
2021/05/06 02:42:21;;;;;;;6.11;2.07;;;;;;;13.31;48.78;98131.08;377012;108;1961936;-73
2021/05/06 02:43:27;;;;;;;5.65;2.50;;;;;;;13.30;48.99;98132.17;376136;108;1961930;-73
2021/05/06 02:44:35;;;;;;;4.17;1.84;;;;;;;13.29;48.87;98127.84;371777;108;1962973;-73
2021/05/06 02:45:40;;;;;;;4.97;2.09;;;;;;;13.29;48.86;98136.78;353551;107;2341980;-72
2021/05/06 02:46:45;;;;;;;5.02;1.98;;;;;;;13.27;48.99;98127.28;376469;106;1961927;-73
2021/05/06 02:47:51;;;;;;;6.10;2.06;;;;;;;13.23;49.16;98120.70;366861;107;1960886;-72
2021/05/06 02:48:56;;;;;;;4.71;2.12;;;;;;;13.24;49.04;98120.45;357453;110;1962005;-72
2021/05/06 02:50:01;;;;;;;5.49;2.44;;;;;;;13.20;49.30;98116.61;363197;110;1962055;-71
2021/05/06 02:51:07;;;;;;;8.82;1.78;;;;;;;13.22;49.17;98128.02;370670;108;1962951;-73
2021/05/06 02:53:47;;;;;;;6.44;2.14;;;;;;;13.17;49.29;98123.38;371614;108;1961943;-74
2021/05/06 02:54:51;;;;;;;9.04;2.72;;;;;;;13.15;49.53;98132.84;373130;108;1961974;-73
2021/05/06 02:57:11;;;;;;;4.42;2.03;;;;;;;13.17;49.41;98128.80;360481;109;2881075;-71
2021/05/06 02:58:16;;;;;;;7.69;2.23;;;;;;;13.16;49.58;98115.52;365593;108;1962995;-72
2021/05/06 02:59:38;;;;;;;3.46;1.72;;;;;;;13.14;49.61;98123.89;328305;108;2631966;-73
2021/05/06 03:03:22;;;;;;;8.90;1.95;;;;;;;13.09;49.74;98128.47;350527;115;1961972;-73
2021/05/06 03:04:28;;;;;;;5.60;2.47;;;;;;;13.12;49.75;98127.94;350056;115;1962034;-72
2021/05/06 03:05:36;;;;;;;6.53;2.60;;;;;;;13.12;49.74;98126.05;367376;108;1962029;-73
2021/05/06 03:06:56;;;;;;;7.43;2.23;;;;;;;13.11;49.83;98116.28;360640;112;1961975;-73
2021/05/06 03:08:15;;;;;;;5.96;2.07;;;;;;;13.14;49.85;98123.08;360986;112;1960790;-73
2021/05/06 03:12:08;;;;;;;7.45;2.41;;;;;;;13.18;49.78;98121.50;361463;112;1961044;-73
2021/05/06 03:14:36;;;;;;;9.30;3.51;;;;;;;13.22;49.78;98133.44;360749;110;1960956;-72
2021/05/06 03:23:36;;;;;;;6.77;2.26;;;;;;;13.35;49.61;98126.78;364948;110;1964025;-73
2021/05/06 03:24:45;;;;;;;6.53;2.43;;;;;;;13.36;49.57;98144.67;356354;108;2879940;-72
2021/05/06 03:25:49;;;;;;;7.20;2.16;;;;;;;13.35;49.62;98132.20;366998;109;1961938;-74
2021/05/06 03:26:56;;;;;;;6.47;2.43;;;;;;;13.38;49.53;98124.36;368090;110;1960719;-73
2021/05/06 03:28:08;;;;;;;8.22;2.27;;;;;;;13.39;49.47;98128.72;308395;108;2177870;-72
2021/05/06 03:29:18;;;;;;;6.66;2.81;;;;;;;13.35;49.55;98130.30;367512;108;1961919;-72
2021/05/06 03:30:55;;;;;;;9.20;3.69;;;;;;;13.32;49.74;98141.68;335180;108;2561018;-72
2021/05/06 03:42:43;;;;;;;8.84;4.21;;;;;;;12.83;49.95;98068.64;362417;109;1961975;-74
2021/05/06 03:48:54;;;;;;;4.84;2.17;;;;;;;13.47;49.70;98156.41;358037;111;1961967;-72
2021/05/06 04:03:42;;;;;;;4.82;2.22;;;;;;;13.90;49.05;98189.78;299184;111;2189934;-72
2021/05/06 04:16:01;;;;;;;4.38;1.75;;;;;;;14.35;47.88;98191.88;362568;108;1967741;-73
2021/05/06 04:18:17;;;;;;;6.19;2.43;;;;;;;14.37;47.87;98195.14;336648;118;1962002;-73
2021/05/06 04:25:40;;;;;;;7.67;2.58;;;;;;;14.45;47.78;98188.38;318921;109;2874929;-74
2021/05/06 04:27:04;;;;;;;5.36;2.12;;;;;;;14.49;47.63;98197.61;371444;108;1962967;-72
2021/05/06 04:36:47;;;;;;;5.46;2.11;;;;;;;14.63;47.43;98197.94;319639;108;2881995;-73
2021/05/06 04:37:42;;;;;;;6.71;1.95;;;;;;;14.65;47.41;98206.66;364942;108;1961952;-73
2021/05/06 04:38:47;;;;;;;4.65;1.84;;;;;;;14.65;47.41;98199.31;368789;108;1961971;-73
2021/05/06 04:40:04;;;;;;;7.30;2.41;;;;;;;14.68;47.40;98200.67;368075;109;1961995;-73
2021/05/06 04:41:25;;;;;;;6.04;2.32;;;;;;;14.68;47.37;98201.48;371801;108;1961919;-74
2021/05/06 04:46:39;;;;;;;9.44;3.40;;;;;;;14.88;47.21;98194.47;385684;106;1987013;-73
2021/05/06 04:50:24;;;;;;;7.90;2.52;;;;;;;14.84;47.01;98228.70;360080;112;1961951;-73
2021/05/06 04:55:28;;;;;;;8.27;2.32;;;;;;;15.03;46.73;98204.53;325743;112;1964036;-73
2021/05/06 05:04:44;;;;;;;5.72;2.15;;;;;;;15.15;46.55;98221.41;357897;110;1961992;-75
2021/05/06 05:05:49;;;;;;;8.59;2.92;;;;;;;15.14;46.58;98223.32;325234;111;1962032;-76
2021/05/06 05:07:04;;;;;;;6.68;2.44;;;;;;;15.20;46.57;98223.33;350800;112;1963979;-74
2021/05/06 05:08:09;;;;;;;7.88;2.24;;;;;;;15.19;46.66;98222.52;320258;112;2689013;-73
2021/05/06 05:11:04;;;;;;;8.88;2.16;;;;;;;15.23;46.65;98244.54;360215;112;1961962;-74
2021/05/06 05:12:08;;;;;;;5.73;2.22;;;;;;;15.21;46.66;98239.36;349502;115;1961905;-74
2021/05/06 05:19:58;;;;;;;6.99;2.43;;;;;;;15.32;46.68;98241.02;352858;113;2883204;-75
2021/05/06 05:23:50;;;;;;;8.92;2.53;;;;;;;15.24;46.95;98235.28;353950;112;1970071;-74
2021/05/06 05:26:05;;;;;;;5.19;2.16;;;;;;;15.20;47.09;98253.25;360728;111;1962062;-74
2021/05/06 05:27:07;;;;;;;6.87;2.43;;;;;;;15.15;47.17;98249.42;354279;110;1963970;-75
2021/05/06 05:28:17;;;;;;;6.29;2.62;;;;;;;15.09;47.43;98257.86;333307;110;2484949;-74
2021/05/06 05:29:22;;;;;;;8.28;2.56;;;;;;;15.00;47.74;98257.55;356220;112;1961989;-74
2021/05/06 05:30:30;;;;;;;5.56;2.21;;;;;;;15.00;47.74;98254.02;358705;112;1962004;-74
2021/05/06 05:31:37;;;;;;;5.43;2.38;;;;;;;14.98;47.83;98251.59;339391;112;1961931;-74
2021/05/06 05:32:43;;;;;;;6.68;2.67;;;;;;;14.94;48.04;98269.52;361695;110;1962018;-74
2021/05/06 05:33:56;;;;;;;8.18;2.32;;;;;;;14.93;48.09;98257.83;359259;111;1961837;-74
2021/05/06 05:35:02;;;;;;;6.27;2.09;;;;;;;14.95;48.16;98262.98;357831;110;1961114;-75
2021/05/06 05:36:12;;;;;;;9.51;3.06;;;;;;;14.98;48.14;98262.47;354863;113;1962875;-75
2021/05/06 05:37:19;;;;;;;6.34;2.03;;;;;;;15.00;48.06;98254.02;352015;113;1962019;-75
2021/05/06 05:39:41;;;;;;;5.84;2.41;;;;;;;15.03;48.08;98248.88;294804;111;2175951;-75
2021/05/06 05:42:20;;;;;;;7.19;2.29;;;;;;;15.08;48.15;98246.17;333600;111;2430965;-76
2021/05/06 05:47:56;;;;;;;7.86;2.68;;;;;;;15.10;48.33;98270.36;369188;109;1963003;-73
2021/05/06 05:55:27;;;;;;;5.18;2.01;;;;;;;15.29;48.28;98268.74;337395;117;1960753;-74
2021/05/06 05:56:33;;;;;;;6.79;2.28;;;;;;;15.29;48.30;98276.91;335108;116;1960824;-75
2021/05/06 05:57:39;;;;;;;10.71;2.93;;;;;;;15.37;48.13;98275.55;329518;121;2885843;-74
2021/05/06 05:58:45;;;;;;;5.16;2.05;;;;;;;15.38;48.19;98291.63;309492;120;1960710;-74
2021/05/06 05:59:50;;;;;;;8.77;2.13;;;;;;;15.48;48.00;98288.09;329041;119;1960604;-74
2021/05/06 06:00:56;;;;;;;5.93;2.00;;;;;;;15.52;47.89;98277.47;334964;117;1960746;-74
2021/05/06 06:02:01;;;;;;;6.89;2.53;;;;;;;15.61;47.66;98289.44;335349;119;1960720;-74
2021/05/06 06:03:07;;;;;;;6.39;2.03;;;;;;;15.68;47.60;98281.02;330302;122;1960706;-74
2021/05/06 06:04:12;;;;;;;4.78;2.26;;;;;;;15.73;47.61;98289.20;328067;121;1960658;-74
2021/05/06 06:05:18;;;;;;;5.98;2.18;;;;;;;15.79;47.45;98283.47;318235;128;1960826;-74
2021/05/06 06:06:25;;;;;;;7.32;2.24;;;;;;;15.83;47.35;98284.57;329281;121;1961977;-75
2021/05/06 06:07:31;;;;;;;8.48;3.16;;;;;;;15.81;47.38;98283.20;271168;121;2237018;-74
2021/05/06 06:08:37;;;;;;;9.32;2.84;;;;;;;15.80;47.54;98279.67;305252;124;1962955;-75
2021/05/06 06:09:43;;;;;;;6.54;2.22;;;;;;;15.85;47.48;98291.63;327880;122;1961930;-74
2021/05/06 06:10:49;;;;;;;5.49;2.19;;;;;;;15.87;47.42;98290.27;318324;125;1962005;-75
2021/05/06 06:11:54;;;;;;;7.26;2.28;;;;;;;15.87;47.34;98295.72;332083;121;1961999;-74
2021/05/06 06:12:59;;;;;;;7.99;2.58;;;;;;;15.75;47.63;98297.92;328493;123;1961941;-74
2021/05/06 06:14:09;;;;;;;6.64;2.19;;;;;;;15.73;47.61;98302.82;325102;125;1962939;-72
2021/05/06 06:15:35;;;;;;;5.40;2.51;;;;;;;15.65;47.99;98298.70;329301;121;1961967;-73
2021/05/06 06:16:29;;;;;;;7.65;2.52;;;;;;;15.56;48.08;98306.61;329427;123;1961957;-73
2021/05/06 06:17:41;;;;;;;5.94;2.33;;;;;;;15.53;48.17;98304.44;323137;125;1962064;-71
2021/05/06 06:18:51;;;;;;;7.21;2.57;;;;;;;15.55;48.27;98304.14;328860;121;1962043;-72
2021/05/06 06:19:59;;;;;;;10.14;2.92;;;;;;;15.55;48.30;98309.59;324306;125;1963060;-72
2021/05/06 06:22:10;;;;;;;6.63;2.43;;;;;;;15.67;48.18;98307.42;330768;123;1961981;-73
2021/05/06 06:23:16;;;;;;;6.61;2.76;;;;;;;15.60;48.41;98315.03;329601;122;1963019;-71
2021/05/06 06:24:22;;;;;;;7.49;2.91;;;;;;;15.53;48.51;98328.92;327555;124;1962023;-72
2021/05/06 06:25:28;;;;;;;7.35;2.97;;;;;;;15.49;48.66;98322.38;280451;125;2865949;-72
2021/05/06 06:26:34;;;;;;;7.14;2.72;;;;;;;15.38;49.00;98321.55;314519;123;1961793;-74
2021/05/06 06:27:40;;;;;;;7.92;2.62;;;;;;;15.38;49.05;98315.30;321605;124;1962014;-73
2021/05/06 06:28:48;;;;;;;7.03;2.84;;;;;;;15.38;49.13;98315.30;319030;126;1962131;-73
2021/05/06 06:29:54;;;;;;;7.43;2.90;;;;;;;15.32;49.44;98332.69;306582;111;2556679;-73
2021/05/06 06:30:59;;;;;;;8.36;3.22;;;;;;;15.26;49.79;98314.73;320716;115;1962005;-74
2021/05/06 06:32:08;;;;;;;7.97;2.36;;;;;;;15.25;49.63;98327.52;333073;115;1961952;-72
2021/05/06 06:33:23;;;;;;;8.31;2.83;;;;;;;15.23;49.98;98332.41;350409;115;1962019;-72
2021/05/06 06:34:29;;;;;;;6.23;2.73;;;;;;;15.19;49.89;98336.77;302825;119;2652045;-73
2021/05/06 06:35:35;;;;;;;6.80;3.03;;;;;;;15.17;50.07;98328.05;334794;119;1962015;-74
2021/05/06 06:36:45;;;;;;;8.14;2.73;;;;;;;15.18;50.24;98324.23;333081;119;2933096;-73
2021/05/06 06:37:51;;;;;;;5.31;2.72;;;;;;;15.13;50.40;98346.78;341764;117;1962046;-73
2021/05/06 06:39:07;;;;;;;9.22;2.95;;;;;;;15.15;50.44;98346.53;337997;117;1962032;-73
2021/05/06 06:40:14;;;;;;;9.00;3.54;;;;;;;15.11;50.84;98335.38;333068;122;1961991;-73
2021/05/06 06:41:21;;;;;;;22.43;4.08;;;;;;;15.11;51.17;98342.70;330793;119;2870761;-73
2021/05/06 06:42:26;;;;;;;8.06;3.39;;;;;;;15.06;51.42;98359.03;330561;120;1961900;-73
2021/05/06 06:43:44;;;;;;;7.44;3.12;;;;;;;15.00;51.83;98362.80;334196;121;1962852;-73
2021/05/06 06:44:50;;;;;;;6.62;3.48;;;;;;;14.93;52.17;98372.03;341677;118;1961884;-74
2021/05/06 06:45:57;;;;;;;6.93;3.08;;;;;;;14.81;53.08;98387.73;291470;117;2173977;-73
2021/05/06 06:47:06;;;;;;;8.50;3.11;;;;;;;14.80;53.25;98363.55;345623;117;1964989;-73
2021/05/06 06:48:13;;;;;;;13.68;4.03;;;;;;;14.73;53.57;98361.87;328277;114;1962022;-72
2021/05/06 06:49:18;;;;;;;8.11;3.57;;;;;;;14.66;54.27;98368.63;353393;114;1961978;-72
2021/05/06 06:50:26;;;;;;;9.14;3.85;;;;;;;14.53;55.99;98399.83;351590;114;1961919;-72
2021/05/06 06:51:32;;;;;;;8.89;3.99;;;;;;;14.44;57.04;98382.34;304424;116;2751941;-73
2021/05/06 06:52:37;;;;;;;8.26;3.37;;;;;;;14.32;56.64;98379.84;319707;114;1961950;-73
2021/05/06 06:53:43;;;;;;;8.33;4.15;;;;;;;14.14;56.51;98356.63;352054;114;1962064;-73
2021/05/06 06:54:49;;;;;;;16.37;4.21;;;;;;;14.17;57.28;98383.25;354763;114;1963968;-72
2021/05/06 06:55:55;;;;;;;10.94;4.63;;;;;;;13.99;59.75;98381.75;353169;114;1961883;-73
2021/05/06 06:57:05;;;;;;;10.33;4.47;;;;;;;13.95;59.72;98380.66;316115;114;1968931;-72
2021/05/06 06:58:13;;;;;;;11.34;4.68;;;;;;;13.75;73.27;98381.29;353216;114;1961955;-72
2021/05/06 06:59:18;;;;;;;9.31;4.54;;;;;;;13.70;63.03;98394.00;345076;114;1962052;-72
2021/05/06 07:00:24;;;;;;;7.80;3.76;;;;;;;13.61;63.37;98402.61;353552;114;1961967;-73
2021/05/06 07:01:29;;;;;;;7.07;3.72;;;;;;;13.51;65.02;98407.92;353198;115;1962012;-73
2021/05/06 07:02:45;;;;;;;9.36;4.38;;;;;;;13.41;64.57;98395.06;353734;114;1962017;-74
2021/05/06 07:03:51;;;;;;;6.51;2.83;;;;;;;13.33;64.63;98390.10;351184;115;1961958;-72
2021/05/06 07:04:58;;;;;;;7.83;3.74;;;;;;;13.25;64.20;98411.41;343233;116;1961896;-73
2021/05/06 07:06:03;;;;;;;5.68;3.43;;;;;;;13.22;64.49;98391.04;287328;115;2209924;-74
2021/05/06 07:07:09;;;;;;;8.98;3.34;;;;;;;13.20;64.31;98402.16;335983;115;1962985;-73
2021/05/06 07:08:23;;;;;;;8.55;3.69;;;;;;;13.11;64.09;98410.98;344147;115;1962959;-74
2021/05/06 07:09:29;;;;;;;7.71;2.82;;;;;;;13.12;64.02;98409.90;349020;115;1964770;-73
2021/05/06 07:10:36;;;;;;;5.02;2.99;;;;;;;13.01;64.17;98406.25;347710;115;1962827;-73
2021/05/06 07:11:42;;;;;;;5.03;2.71;;;;;;;13.00;63.66;98436.34;348915;115;1961970;-73
2021/05/06 07:12:48;;;;;;;6.99;3.16;;;;;;;13.00;63.62;98409.23;319268;115;2416912;-73
2021/05/06 07:13:54;;;;;;;9.70;3.14;;;;;;;13.01;64.09;98416.28;320767;115;1962046;-73
2021/05/06 07:14:59;;;;;;;6.01;2.89;;;;;;;13.03;63.66;98411.44;327098;113;1961911;-73
2021/05/06 07:16:06;;;;;;;6.71;2.83;;;;;;;12.97;63.55;98416.79;345771;115;1961886;-72
2021/05/06 07:17:21;;;;;;;5.90;2.75;;;;;;;12.93;63.99;98410.22;354351;114;1962018;-72
2021/05/06 07:18:29;;;;;;;5.86;1.99;;;;;;;12.99;63.39;98421.94;363830;110;1962951;-72
2021/05/06 07:19:35;;;;;;;4.44;2.39;;;;;;;12.98;62.59;98407.58;358358;110;1962007;-75
2021/05/06 07:20:45;;;;;;;5.25;2.19;;;;;;;13.04;62.97;98418.48;311810;110;2832939;-74
2021/05/06 07:21:51;;;;;;;2.88;1.61;;;;;;;13.06;63.09;98425.30;361857;111;1961975;-74
2021/05/06 07:22:57;;;;;;;4.53;1.60;;;;;;;13.02;62.38;98431.46;361605;112;1961972;-74
2021/05/06 07:24:05;;;;;;;4.15;1.32;;;;;;;12.97;61.49;98445.80;308590;112;2094846;-74
2021/05/06 07:25:13;;;;;;;2.87;1.13;;;;;;;12.89;60.72;98421.84;352607;109;1960840;-73
2021/05/06 07:26:24;;;;;;;2.91;0.94;;;;;;;12.81;61.99;98416.83;335299;112;1962109;-73
2021/05/06 07:27:30;;;;;;;3.39;0.87;;;;;;;12.55;63.94;98405.66;354392;112;1964901;-74
2021/05/06 07:28:40;;;;;;;3.03;1.09;;;;;;;12.26;68.32;98421.22;347990;114;1962030;-73
2021/05/06 07:29:47;;;;;;;4.18;0.89;;;;;;;12.07;69.47;98404.41;355020;112;1963971;-75
2021/05/06 07:30:55;;;;;;;3.35;1.03;;;;;;;11.77;71.47;98427.14;338794;114;2278023;-74
2021/05/06 07:32:02;;;;;;;3.11;0.99;;;;;;;11.63;71.41;98440.16;355976;111;1962080;-72
2021/05/06 07:33:19;;;;;;;2.13;0.76;;;;;;;11.13;71.10;98367.84;345692;111;2856914;-73
2021/05/06 07:34:27;;;;;;;2.72;0.65;;;;;;;11.68;71.24;98452.96;360874;111;1962043;-74
2021/05/06 07:35:34;;;;;;;2.36;0.81;;;;;;;11.74;69.44;98472.80;360993;111;1961918;-73
2021/05/06 07:36:41;;;;;;;2.81;0.88;;;;;;;11.71;69.49;98459.77;324548;113;2597882;-72
2021/05/06 07:37:48;;;;;;;3.90;1.16;;;;;;;11.77;68.03;98464.20;363515;111;1960957;-74
2021/05/06 07:38:55;;;;;;;2.77;0.85;;;;;;;11.78;67.99;98498.33;361375;111;1960889;-72
2021/05/06 07:40:03;;;;;;;2.83;0.86;;;;;;;11.75;67.17;98469.02;355317;113;1962050;-73
2021/05/06 07:41:12;;;;;;;5.32;1.10;;;;;;;11.73;68.65;98465.77;358713;113;1960933;-72
2021/05/06 07:42:20;;;;;;;2.98;0.86;;;;;;;11.69;67.96;98465.41;361927;111;1963893;-74
2021/05/06 07:43:30;;;;;;;1.83;0.72;;;;;;;11.63;68.45;98469.09;359982;111;1960972;-74
2021/05/06 07:44:37;;;;;;;3.77;0.87;;;;;;;11.53;67.74;98464.30;352153;111;1961028;-74
2021/05/06 07:45:45;;;;;;;2.49;0.87;;;;;;;11.58;66.99;98485.22;365632;111;1960923;-73
2021/05/06 07:47:08;;;;;;;2.07;0.80;;;;;;;11.55;67.26;98472.19;362641;111;1960888;-73
2021/05/06 07:48:02;;;;;;;2.51;0.73;;;;;;;11.52;66.68;98481.61;334449;111;2408904;-73
2021/05/06 07:49:09;;;;;;;2.98;1.16;;;;;;;11.52;67.25;98475.38;365526;111;1960720;-73
2021/05/06 07:50:18;;;;;;;2.56;0.78;;;;;;;11.51;66.49;98476.42;295658;111;2254016;-73
2021/05/06 07:51:27;;;;;;;3.11;0.83;;;;;;;11.54;67.06;98460.56;361559;111;1960985;-74
2021/05/06 07:52:35;;;;;;;1.57;0.71;;;;;;;11.56;69.63;98463.81;362152;111;1960997;-73
2021/05/06 07:53:47;;;;;;;3.32;0.80;;;;;;;11.58;69.92;98471.70;323159;111;1966816;-73
2021/05/06 07:54:54;;;;;;;2.61;0.86;;;;;;;11.64;68.86;98471.57;356735;111;2895946;-74
2021/05/06 07:56:01;;;;;;;3.04;0.83;;;;;;;11.70;71.09;98485.19;353147;113;1960700;-74
2021/05/06 07:57:07;;;;;;;3.29;0.88;;;;;;;11.64;68.85;98495.91;310184;115;2883908;-73
2021/05/06 07:58:13;;;;;;;2.68;0.84;;;;;;;11.64;69.60;98492.36;327451;115;1961057;-73
2021/05/06 07:59:18;;;;;;;4.43;0.64;;;;;;;11.69;69.87;98491.64;339016;113;1960875;-74
2021/05/06 08:00:25;;;;;;;3.02;0.65;;;;;;;11.64;67.87;98493.21;347209;114;1962965;-72
2021/05/06 08:01:31;;;;;;;3.12;0.87;;;;;;;11.68;67.95;98481.91;352719;113;1961931;-72
2021/05/06 08:02:38;;;;;;;2.56;0.68;;;;;;;11.66;67.66;98495.66;354113;113;1961969;-73
2021/05/06 08:03:44;;;;;;;2.53;0.81;;;;;;;11.62;66.98;98473.69;348883;113;1962971;-73
2021/05/06 08:04:50;;;;;;;2.19;0.78;;;;;;;11.76;67.96;98489.63;355069;113;1961070;-74
2021/05/06 08:05:58;;;;;;;3.36;0.92;;;;;;;11.86;67.44;98500.67;352068;113;1961963;-74
2021/05/06 08:07:04;;;;;;;3.72;0.82;;;;;;;11.90;65.94;98495.58;354079;113;1962018;-73
2021/05/06 08:08:10;;;;;;;2.02;0.72;;;;;;;11.96;65.70;98494.59;353184;113;1961881;-73
2021/05/06 08:09:15;;;;;;;2.09;0.69;;;;;;;12.09;66.83;98497.00;351847;114;1963103;-74
2021/05/06 08:10:24;;;;;;;2.68;0.92;;;;;;;12.18;65.96;98490.13;332175;113;1961704;-74
2021/05/06 08:11:29;;;;;;;2.83;0.80;;;;;;;12.30;67.73;98487.33;353692;113;1961946;-74
2021/05/06 08:12:35;;;;;;;3.38;1.12;;;;;;;12.49;66.20;98485.19;347475;115;1960929;-74
2021/05/06 08:13:41;;;;;;;1.69;0.69;;;;;;;12.66;66.50;98498.73;352980;113;1961976;-72
2021/05/06 08:14:47;;;;;;;3.70;1.01;;;;;;;12.81;64.44;98489.99;356091;112;1962007;-73
2021/05/06 08:16:07;;;;;;;1.82;0.74;;;;;;;12.92;65.10;98499.94;293411;117;2111920;-74